Time;durP1;ratioP1;P1;durP2;ratioP2;P2;SDS_P1;SDS_P2;PMS_P1;PMS_P2;Temp;Humidity;BMP_temperature;BMP_pressure;BME280_temperature;BME280_humidity;BME280_pressure;Samples;Min_cycle;Max_cycle;Signal;HPM_P1;HPM_P2
2024/01/11 00:02:05;;;;;;;298.70;137.10;;;;;;;-7.38;80.30;102201.27;104616;1294;76629;-58
2024/01/11 00:04:51;;;;;;;43.90;18.80;;;;;;;-7.31;79.74;102203.33;104678;1294;69971;-55
2024/01/11 00:07:37;;;;;;;46.10;17.60;;;;;;;-7.26;80.25;102194.12;104610;1294;71274;-58
2024/01/11 00:10:23;;;;;;;51.50;17.70;;;;;;;-7.21;78.84;102191.37;104639;1293;62025;-57
2024/01/11 00:13:10;;;;;;;38.90;17.90;;;;;;;-7.14;78.39;102182.23;104668;1292;61768;-58
2024/01/11 00:15:56;;;;;;;26.20;11.20;;;;;;;-7.07;80.04;102174.77;104666;1295;73349;-58
2024/01/11 00:18:44;;;;;;;37.20;15.00;;;;;;;-7.01;79.11;102168.05;104701;1294;67221;-58
2024/01/11 00:21:31;;;;;;;36.80;14.40;;;;;;;-6.95;79.69;102172.36;104683;1292;75404;-58
2024/01/11 00:24:17;;;;;;;37.90;12.40;;;;;;;-6.87;79.69;102160.73;104707;1294;60399;-58
2024/01/11 00:27:04;;;;;;;71.60;48.90;;;;;;;-6.80;80.39;102155.64;104688;1292;61723;-57
2024/01/11 00:29:50;;;;;;;36.60;15.40;;;;;;;-6.73;80.94;102156.28;105632;1292;73719;-57
2024/01/11 00:32:36;;;;;;;30.40;14.70;;;;;;;-6.69;80.96;102164.53;104729;1295;67233;-58
2024/01/11 00:35:22;;;;;;;29.60;12.60;;;;;;;-6.63;79.78;102152.73;104704;1296;73982;-58
2024/01/11 00:38:09;;;;;;;64.70;27.30;;;;;;;-6.56;80.52;102149.07;104645;1293;61299;-57
2024/01/11 00:40:55;;;;;;;32.50;12.70;;;;;;;-6.51;81.58;102145.91;104732;1295;60582;-57
2024/01/11 00:43:41;;;;;;;32.30;14.00;;;;;;;-6.48;81.17;102154.88;104628;1293;72432;-59
2024/01/11 00:46:27;;;;;;;29.40;12.70;;;;;;;-6.44;80.80;102155.03;104635;1293;71752;-58
2024/01/11 00:49:14;;;;;;;28.90;12.80;;;;;;;-6.40;80.81;102155.88;104714;1293;75420;-59
2024/01/11 00:52:00;;;;;;;439.60;221.20;;;;;;;-6.34;80.84;102160.52;104700;1294;60480;-58
2024/01/11 00:54:46;;;;;;;29.10;12.50;;;;;;;-6.31;80.91;102165.91;104681;1292;60464;-59
2024/01/11 00:57:32;;;;;;;32.80;12.50;;;;;;;-6.29;81.24;102162.27;104756;1294;72882;-57
2024/01/11 01:00:19;;;;;;;33.40;13.20;;;;;;;-6.26;80.44;102173.52;104720;1292;71745;-58
2024/01/11 01:03:05;;;;;;;28.10;11.80;;;;;;;-6.23;81.09;102165.84;104691;1292;71271;-58
2024/01/11 01:05:51;;;;;;;28.30;11.70;;;;;;;-6.21;80.88;102162.80;104707;1294;60443;-64
2024/01/11 01:08:38;;;;;;;788.90;404.90;;;;;;;-6.18;80.68;102157.47;104736;1291;62800;-58
2024/01/11 01:11:24;;;;;;;32.00;13.40;;;;;;;-6.17;82.30;102149.71;104624;1293;72391;-59
2024/01/11 01:14:10;;;;;;;32.70;13.10;;;;;;;-6.17;81.51;102161.11;104630;1294;70006;-58
2024/01/11 01:16:57;;;;;;;31.60;12.80;;;;;;;-6.15;81.11;102160.75;104648;1294;75409;-55
2024/01/11 01:19:44;;;;;;;34.20;12.90;;;;;;;-6.15;81.18;102153.39;104686;1292;60379;-57
2024/01/11 01:22:30;;;;;;;33.40;11.70;;;;;;;-6.14;81.48;102158.81;106082;1293;58976;-60
2024/01/11 01:25:16;;;;;;;;;;;;;;;-6.13;82.07;102159.20;106027;1294;72584;-59
2024/01/11 01:28:02;;;;;;;31.10;12.70;;;;;;;-6.11;81.77;102150.83;106039;1291;69255;-60
2024/01/11 01:30:48;;;;;;;35.80;12.40;;;;;;;-6.08;82.10;102146.51;106068;1291;71410;-60
2024/01/11 01:33:34;;;;;;;31.60;12.60;;;;;;;-6.07;81.60;102147.41;106023;1293;58479;-60
2024/01/11 01:36:20;;;;;;;;;;;;;;;-6.02;81.38;102143.44;106069;1293;58840;-60
2024/01/11 01:39:06;;;;;;;31.30;12.90;;;;;;;-5.97;81.84;102140.59;106025;1291;72284;-59
2024/01/11 01:41:52;;;;;;;;;;;;;;;-5.94;81.46;102137.64;106061;1294;68795;-58
2024/01/11 01:44:40;;;;;;;26.40;9.10;;;;;;;-5.89;81.31;102139.02;106000;1293;73980;-60
2024/01/11 01:47:27;;;;;;;35.30;11.70;;;;;;;-5.85;81.95;102139.17;105988;1292;58405;-60
2024/01/11 01:50:13;;;;;;;20.10;11.70;;;;;;;-5.84;81.81;102141.87;106062;1291;60238;-60
2024/01/11 01:52:59;;;;;;;;;;;;;;;-5.83;82.04;102152.03;105772;1294;346126;-60
2024/01/11 01:55:46;;;;;;;33.70;12.40;;;;;;;-5.83;82.28;102149.25;106033;1295;67310;-60
2024/01/11 01:58:33;;;;;;;31.80;11.20;;;;;;;-5.81;82.84;102130.05;105969;1293;71769;-60
2024/01/11 02:01:22;;;;;;;28.60;12.40;;;;;;;-5.80;82.65;102125.40;106049;1293;58221;-59
2024/01/11 02:04:08;;;;;;;33.10;13.90;;;;;;;-5.78;81.68;102139.16;105991;1294;59039;-60
2024/01/11 02:06:55;;;;;;;30.60;10.90;;;;;;;-5.75;82.33;102121.75;106052;1292;73729;-59
2024/01/11 02:09:42;;;;;;;29.10;11.80;;;;;;;-5.70;81.89;102128.14;106027;1292;67984;-60
2024/01/11 02:12:29;;;;;;;30.10;11.90;;;;;;;-5.68;81.78;102137.55;106003;1295;71324;-60
2024/01/11 02:15:15;;;;;;;32.10;12.80;;;;;;;-5.63;81.98;102127.49;106006;1292;58411;-60
2024/01/11 02:18:01;;;;;;;28.50;13.00;;;;;;;-5.60;82.01;102132.20;106065;1292;60131;-59
2024/01/11 02:20:47;;;;;;;27.50;12.10;;;;;;;-5.59;81.62;102130.94;106017;1293;74151;-60
2024/01/11 02:24:06;;;;;;;35.50;15.30;;;;;;;-5.55;82.48;102119.48;106019;1295;67406;-60
2024/01/11 02:27:03;;;;;;;28.90;11.70;;;;;;;-5.54;81.74;102124.48;105991;1292;71382;-60
2024/01/11 02:29:49;;;;;;;32.50;13.70;;;;;;;-5.50;81.84;102122.89;105880;1293;59535;-60
2024/01/11 02:32:35;;;;;;;;;;;;;;;-5.49;81.68;102120.26;106025;1292;58738;-57
2024/01/11 02:35:24;;;;;;;;;;;;;;;-5.49;82.17;102117.56;34500;1292;20050475;-60
2024/01/11 02:38:10;;;;;;;36.60;16.50;;;;;;;-5.51;82.34;102115.73;105949;1292;60346;-60
2024/01/11 02:40:58;;;;;;;35.70;14.00;;;;;;;-5.50;82.59;102118.37;106022;1292;72587;-60
2024/01/11 02:43:48;;;;;;;37.50;14.60;;;;;;;-5.50;82.44;102131.80;106021;1295;68422;-61
2024/01/11 02:46:34;;;;;;;29.20;13.00;;;;;;;-5.46;82.10;102129.42;106032;1291;72201;-60
2024/01/11 02:49:20;;;;;;;;;;;;;;;-5.44;82.47;102107.52;105906;1292;203203;-60
2024/01/11 02:52:06;;;;;;;36.30;13.80;;;;;;;-5.46;82.35;102114.08;106126;1292;58867;-60
2024/01/11 02:54:52;;;;;;;;;;;;;;;-5.45;82.55;102115.36;106129;1291;71834;-60
2024/01/11 02:57:37;;;;;;;27.90;12.10;;;;;;;-5.45;82.61;102120.77;106145;1292;67920;-60
2024/01/11 03:00:23;;;;;;;;;;;;;;;-5.44;82.43;102116.64;106022;1292;72568;-59
2024/01/11 03:03:09;;;;;;;28.10;12.60;;;;;;;-5.43;82.34;102105.79;106119;1292;58438;-60
2024/01/11 03:05:55;;;;;;;;;;;;;;;-5.40;83.58;102107.83;106150;1292;59071;-59
2024/01/11 03:08:41;;;;;;;33.90;14.10;;;;;;;-5.43;83.18;102118.03;106151;1291;73511;-60
2024/01/11 03:11:27;;;;;;;;;;;;;;;-5.41;82.62;102116.30;106161;1292;68764;-60
2024/01/11 03:14:13;;;;;;;31.70;13.00;;;;;;;-5.39;82.48;102113.98;106123;1289;73252;-60
2024/01/11 03:16:59;;;;;;;33.60;13.50;;;;;;;-5.36;82.28;102111.66;106093;1294;58295;-60
2024/01/11 03:19:45;;;;;;;;;;;;;;;-5.32;82.37;102127.04;106137;1291;58949;-60
2024/01/11 03:22:31;;;;;;;38.80;14.80;;;;;;;-5.31;82.80;102119.70;106134;1292;72336;-59
2024/01/11 03:25:17;;;;;;;;;;;;;;;-5.31;82.46;102098.84;106175;1292;67405;-60
2024/01/11 03:28:03;;;;;;;33.60;15.30;;;;;;;-5.31;83.12;102098.73;106127;1292;72506;-59
2024/01/11 03:30:49;;;;;;;30.30;11.80;;;;;;;-5.30;82.47;102099.60;106131;1292;58438;-60
2024/01/11 03:33:35;;;;;;;;;;;;;;;-5.27;82.95;102092.43;106207;1292;59501;-60
2024/01/11 03:36:23;;;;;;;36.40;14.10;;;;;;;-5.31;84.04;102085.45;106159;1295;72360;-58
2024/01/11 03:39:09;;;;;;;34.70;15.40;;;;;;;-5.33;83.90;102082.61;106168;1292;67468;-60
2024/01/11 03:41:55;;;;;;;;;;;;;;;-5.33;83.03;102086.17;106139;1291;71152;-59
2024/01/11 03:44:41;;;;;;;34.30;14.00;;;;;;;-5.29;82.95;102084.27;105992;1291;87770;-60
2024/01/11 03:47:27;;;;;;;;;;;;;;;-5.24;82.85;102072.33;106102;1291;59603;-59
2024/01/11 03:50:13;;;;;;;38.90;16.00;;;;;;;-5.23;82.94;102066.32;106060;1291;72823;-59
2024/01/11 03:52:59;;;;;;;52.10;17.20;;;;;;;-5.20;82.90;102061.00;106015;1291;67781;-60
2024/01/11 03:55:45;;;;;;;61.70;20.20;;;;;;;-5.21;83.64;102056.61;106104;1292;72206;-58
2024/01/11 03:58:31;;;;;;;58.20;18.70;;;;;;;-5.23;83.22;102059.95;106010;1292;59321;-60
2024/01/11 04:01:17;;;;;;;;;;;;;;;-5.22;82.87;102053.63;98713;1296;10001790;-60
2024/01/11 04:04:03;;;;;;;42.40;16.40;;;;;;;-5.18;82.93;102044.30;106066;1291;71128;-60
2024/01/11 04:06:49;;;;;;;28.30;11.80;;;;;;;-5.17;83.19;102039.16;106085;1290;58523;-60
2024/01/11 04:09:38;;;;;;;44.50;15.80;;;;;;;-5.16;83.51;102040.44;106091;1291;58816;-59
2024/01/11 04:12:24;;;;;;;36.50;15.40;;;;;;;-5.17;83.27;102040.06;106057;1291;73758;-59
2024/01/11 04:15:13;;;;;;;;;;;;;;;-5.15;83.16;102029.90;106053;1291;68136;-59
2024/01/11 04:17:59;;;;;;;36.30;14.30;;;;;;;-5.14;83.95;102022.92;106111;1291;71087;-60
2024/01/11 04:20:45;;;;;;;;;;;;;;;-5.15;84.09;102018.30;106062;1292;58095;-59
2024/01/11 04:23:31;;;;;;;38.60;15.10;;;;;;;-5.14;84.01;102013.15;105936;1292;59249;-60
2024/01/11 04:26:17;;;;;;;;;;;;;;;-5.13;83.74;102021.98;106068;1291;72552;-60
2024/01/11 04:29:03;;;;;;;37.50;15.80;;;;;;;-5.08;84.30;102007.36;106126;1291;67427;-60
2024/01/11 04:31:49;;;;;;;;;;;;;;;-5.07;83.58;102014.50;106037;1291;72383;-59
2024/01/11 04:34:35;;;;;;;36.10;13.60;;;;;;;-5.02;83.35;102013.84;106034;1291;59098;-58
2024/01/11 04:37:21;;;;;;;;;;;;;;;-4.97;83.85;101996.20;104928;1293;60359;-57
2024/01/11 04:40:08;;;;;;;39.40;14.60;;;;;;;-4.96;83.82;101989.18;104670;1291;73454;-59
2024/01/11 04:42:54;;;;;;;45.50;18.70;;;;;;;-4.95;84.12;101979.02;106065;1291;67920;-60
2024/01/11 04:45:40;;;;;;;;;;;;;;;-4.96;83.98;101981.13;106080;1291;71282;-60
2024/01/11 04:48:26;;;;;;;46.60;17.60;;;;;;;-4.94;83.91;101978.41;106033;1290;58799;-60
2024/01/11 04:51:13;;;;;;;;;;;;;;;-4.93;84.29;101973.42;106150;1291;58821;-60
2024/01/11 04:53:59;;;;;;;35.00;15.60;;;;;;;-4.92;84.53;101969.65;106072;1291;72592;-60
2024/01/11 04:56:44;;;;;;;;;;;;;;;-4.90;84.64;101963.04;106121;1292;67417;-59
2024/01/11 04:59:30;;;;;;;35.90;14.20;;;;;;;-4.86;84.67;101948.70;106038;1291;71236;-60
2024/01/11 05:02:16;;;;;;;31.40;13.60;;;;;;;-4.83;85.26;101952.13;105630;1291;58265;-57
2024/01/11 05:05:03;;;;;;;28.50;12.90;;;;;;;-4.83;84.59;101958.51;104782;1295;60363;-58
2024/01/11 05:07:49;;;;;;;36.60;14.30;;;;;;;-4.79;84.97;101942.92;105973;1291;73872;-58
2024/01/11 05:10:35;;;;;;;31.50;12.10;;;;;;;-4.77;84.68;101940.88;106153;1291;68184;-59
2024/01/11 05:13:22;;;;;;;28.00;12.70;;;;;;;-4.72;85.06;101937.23;102451;1291;5002562;-59
2024/01/11 05:16:22;;;;;;;32.10;14.40;;;;;;;-4.70;84.91;101945.55;106128;1290;58203;-60
2024/01/11 05:19:08;;;;;;;31.40;13.90;;;;;;;-4.69;84.92;101953.58;106093;1291;59071;-60
2024/01/11 05:21:54;;;;;;;;;;;;;;;-4.63;84.68;101955.05;106202;1291;72511;-59
2024/01/11 05:24:40;;;;;;;30.10;14.00;;;;;;;-4.60;84.72;101942.48;106088;1292;66223;-60
2024/01/11 05:27:26;;;;;;;;;;;;;;;-4.56;85.18;101944.11;106095;1291;72517;-60
2024/01/11 05:30:12;;;;;;;35.20;13.20;;;;;;;-4.56;84.98;101945.77;106167;1291;59679;-59
2024/01/11 05:32:58;;;;;;;31.80;13.70;;;;;;;-4.56;85.14;101936.89;106040;1293;59842;-60
2024/01/11 05:35:44;;;;;;;33.80;14.10;;;;;;;-4.54;85.08;101935.14;106138;1291;73660;-59
2024/01/11 05:38:30;;;;;;;;;;;;;;;-4.51;84.91;101932.82;106194;1291;69077;-60
2024/01/11 05:41:16;;;;;;;28.30;13.50;;;;;;;-4.48;84.97;101927.29;106047;1293;70178;-60
2024/01/11 05:44:02;;;;;;;32.90;12.90;;;;;;;-4.45;85.06;101920.47;106145;1291;59304;-60
2024/01/11 05:46:48;;;;;;;26.90;13.10;;;;;;;-4.44;85.41;101918.64;106074;1291;58717;-60
2024/01/11 05:49:34;;;;;;;31.90;13.40;;;;;;;-4.42;85.53;101917.42;106030;1293;71600;-60
2024/01/11 05:52:20;;;;;;;;;;;;;;;-4.41;85.53;101913.80;105995;1293;68611;-61
2024/01/11 05:55:07;;;;;;;31.00;12.60;;;;;;;-4.38;86.33;101901.38;106125;1292;72558;-59
2024/01/11 05:57:52;;;;;;;;;;;;;;;-4.36;85.65;101895.14;106115;1290;58440;-60
2024/01/11 06:00:56;;;;;;;28.40;11.90;;;;;;;-4.31;85.68;101896.58;106045;1291;58758;-57
2024/01/11 06:03:42;;;;;;;29.30;14.10;;;;;;;-4.29;86.08;101893.88;105949;1291;72545;-59
2024/01/11 06:06:29;;;;;;;30.20;13.00;;;;;;;-4.29;85.93;101899.21;105987;1291;68082;-55
2024/01/11 06:09:15;;;;;;;35.90;14.10;;;;;;;-4.23;85.92;101895.93;106028;1290;72081;-59
2024/01/11 06:12:01;;;;;;;33.60;13.80;;;;;;;-4.22;85.88;101894.30;105937;1291;58098;-58
2024/01/11 06:14:47;;;;;;;31.50;13.60;;;;;;;-4.19;85.57;101897.52;106113;1290;59718;-58
2024/01/11 06:17:33;;;;;;;28.00;12.40;;;;;;;-4.15;85.99;101887.66;106025;1290;72364;-58
2024/01/11 06:20:19;;;;;;;;;;;;;;;-4.13;86.76;101876.73;105976;1291;68379;-59
2024/01/11 06:23:05;;;;;;;37.60;15.50;;;;;;;-4.12;86.39;101869.88;106094;1291;72604;-59
2024/01/11 06:25:51;;;;;;;37.30;14.40;;;;;;;-4.08;86.67;101875.17;105921;1290;58471;-59
2024/01/11 06:28:37;;;;;;;;;;;;;;;-4.08;86.41;101896.08;105313;1290;59226;-61
2024/01/11 06:31:23;;;;;;;32.90;13.60;;;;;;;-4.04;86.30;101898.46;104519;1291;75151;-61
2024/01/11 06:34:09;;;;;;;38.40;15.30;;;;;;;-4.00;86.30;101894.67;104767;1289;68023;-60
2024/01/11 06:36:56;;;;;;;35.80;14.00;;;;;;;-4.00;86.05;101888.48;104834;1293;71984;-61
2024/01/11 06:39:42;;;;;;;34.80;13.50;;;;;;;-4.00;86.14;101886.31;104753;1291;62279;-56
2024/01/11 06:42:30;;;;;;;34.10;13.30;;;;;;;-3.98;86.22;101882.98;104726;1291;60467;-62
2024/01/11 06:45:16;;;;;;;40.00;16.10;;;;;;;-3.96;86.41;101880.64;104836;1290;72397;-61
2024/01/11 06:48:03;;;;;;;37.60;14.20;;;;;;;-3.97;86.80;101883.29;104697;1294;66651;-62
2024/01/11 06:50:49;;;;;;;45.90;21.20;;;;;;;-3.98;86.48;101885.05;105555;1289;71467;-61
2024/01/11 06:53:36;;;;;;;34.20;14.00;;;;;;;-3.94;86.91;101885.13;104876;1289;60378;-61
2024/01/11 06:56:23;;;;;;;35.00;13.20;;;;;;;-3.92;86.52;101885.91;104766;1290;59361;-61
2024/01/11 06:59:09;;;;;;;39.40;15.00;;;;;;;-3.89;86.43;101877.86;104751;1291;72515;-61
2024/01/11 07:01:55;;;;;;;37.60;13.10;;;;;;;-3.87;86.50;101879.48;104728;1292;68037;-61
2024/01/11 07:04:45;;;;;;;32.80;14.50;;;;;;;-3.88;87.24;101875.10;104781;1291;73841;-60
2024/01/11 07:07:32;;;;;;;34.30;14.90;;;;;;;-3.85;87.28;101884.83;104545;1290;59164;-60
2024/01/11 07:10:18;;;;;;;37.70;15.10;;;;;;;-3.84;86.91;101883.26;104748;1291;59234;-60
2024/01/11 07:13:06;;;;;;;37.70;16.10;;;;;;;-3.82;86.97;101877.46;104643;1291;74428;-60
2024/01/11 07:15:53;;;;;;;36.80;15.60;;;;;;;-3.78;86.78;101864.92;104680;1291;69040;-59
2024/01/11 07:18:39;;;;;;;43.00;15.00;;;;;;;-3.75;87.20;101861.59;104722;1290;70195;-61
2024/01/11 07:21:29;;;;;;;32.40;15.00;;;;;;;-3.73;87.25;101865.73;104652;1291;60977;-59
2024/01/11 07:24:15;;;;;;;35.80;14.20;;;;;;;-3.71;87.29;101872.80;104599;1296;59199;-61
2024/01/11 07:27:02;;;;;;;37.00;15.30;;;;;;;-3.68;87.41;101868.90;104729;1291;75174;-62
2024/01/11 07:29:48;;;;;;;38.00;16.00;;;;;;;-3.64;87.26;101875.37;104682;1291;67212;-60
2024/01/11 07:32:34;;;;;;;35.70;14.70;;;;;;;-3.61;87.33;101878.24;97443;1291;10003396;-61
2024/01/11 07:35:21;;;;;;;39.10;16.00;;;;;;;-3.57;87.92;101864.17;104696;1289;72549;-61
2024/01/11 07:38:07;;;;;;;31.20;14.60;;;;;;;-3.53;87.26;101870.62;104778;1291;68490;-62
2024/01/11 07:40:54;;;;;;;38.40;17.60;;;;;;;-3.50;87.21;101873.55;104507;1291;73910;-61
2024/01/11 07:43:40;;;;;;;38.10;16.40;;;;;;;-3.47;87.25;101884.45;104679;1295;60561;-61
2024/01/11 07:46:26;;;;;;;31.40;14.50;;;;;;;-3.43;86.95;101884.09;104554;1291;60589;-60
2024/01/11 07:49:13;;;;;;;37.80;14.90;;;;;;;-3.37;87.03;101879.71;104651;1291;72426;-60
2024/01/11 07:51:59;;;;;;;40.10;16.10;;;;;;;-3.34;86.84;101876.88;104753;1292;67476;-60
2024/01/11 07:54:47;;;;;;;40.10;16.10;;;;;;;-3.29;87.08;101873.10;76798;1295;10002203;-61
2024/01/11 07:57:54;;;;;;;35.00;15.70;;;;;;;-3.25;87.26;101874.85;76607;1292;20072847;-62
2024/01/11 08:00:40;;;;;;;32.20;15.30;;;;;;;-3.21;87.62;101860.10;105886;1293;72857;-64
2024/01/11 08:03:27;;;;;;;;;;;;;;;-3.16;88.00;101855.70;105671;1293;67622;-61
2024/01/11 08:06:14;;;;;;;31.30;14.90;;;;;;;-3.12;88.09;101848.17;106010;1290;71879;-62
2024/01/11 08:09:00;;;;;;;31.90;14.50;;;;;;;-3.07;87.92;101843.71;106023;1289;58184;-61
2024/01/11 08:11:46;;;;;;;31.50;16.00;;;;;;;-3.02;87.96;101848.91;106034;1291;59107;-61
2024/01/11 08:14:32;;;;;;;36.70;14.10;;;;;;;-2.96;87.79;101847.38;106071;1291;72454;-60
2024/01/11 08:17:19;;;;;;;33.50;15.60;;;;;;;-2.88;87.76;101841.41;105953;1290;67319;-60
2024/01/11 08:20:08;;;;;;;30.20;15.00;;;;;;;-2.83;87.55;101845.61;106026;1290;72456;-61
2024/01/11 08:22:54;;;;;;;30.80;14.60;;;;;;;-2.76;87.71;101845.34;106104;1290;58238;-61
2024/01/11 08:25:40;;;;;;;34.70;16.10;;;;;;;-2.72;87.84;101848.75;106022;1290;60676;-60
2024/01/11 08:28:26;;;;;;;29.70;14.70;;;;;;;-2.66;87.75;101859.73;106057;1290;73778;-60
2024/01/11 08:31:12;;;;;;;26.60;13.80;;;;;;;-2.61;87.73;101865.93;106017;1290;68175;-61
2024/01/11 08:33:58;;;;;;;31.40;15.40;;;;;;;-2.55;88.08;101857.63;106019;1294;71435;-61
2024/01/11 08:36:44;;;;;;;;;;;;;;;-2.53;88.00;101854.39;106048;1288;58253;-60
2024/01/11 08:39:31;;;;;;;31.30;14.30;;;;;;;-2.47;88.28;101850.00;106005;1291;59286;-61
2024/01/11 08:42:17;;;;;;;35.00;15.90;;;;;;;-2.45;88.31;101852.29;106080;1292;73697;-61
2024/01/11 08:45:06;;;;;;;32.40;15.20;;;;;;;-2.43;88.35;101849.05;106008;1291;68528;-61
2024/01/11 08:47:53;;;;;;;30.70;15.50;;;;;;;-2.40;88.91;101850.09;105929;1290;71016;-61
2024/01/11 08:50:39;;;;;;;33.60;15.90;;;;;;;-2.37;88.68;101850.76;106004;1291;58442;-60
2024/01/11 08:53:25;;;;;;;34.60;15.20;;;;;;;-2.32;88.67;101858.44;105745;1291;218037;-61
2024/01/11 08:56:12;;;;;;;27.60;15.80;;;;;;;-2.28;88.45;101858.34;105977;1291;74002;-61
2024/01/11 08:58:58;;;;;;;30.30;16.30;;;;;;;-2.21;88.50;101860.22;105917;1291;67658;-61
2024/01/11 09:01:44;;;;;;;31.10;15.60;;;;;;;-2.16;88.49;101875.75;105946;1291;71210;-61
2024/01/11 09:04:31;;;;;;;28.90;16.70;;;;;;;-2.11;88.49;101871.92;105954;1291;58421;-61
2024/01/11 09:07:17;;;;;;;28.90;16.00;;;;;;;-2.06;88.43;101861.24;105804;1294;59371;-61
2024/01/11 09:10:03;;;;;;;28.80;15.10;;;;;;;-2.01;88.71;101869.97;106003;1291;72122;-61
2024/01/11 09:12:49;;;;;;;27.10;15.20;;;;;;;-1.96;88.78;101865.47;105981;1290;67465;-60
2024/01/11 09:15:35;;;;;;;27.70;16.30;;;;;;;-1.91;88.80;101862.69;105938;1291;70997;-61
2024/01/11 09:18:22;;;;;;;28.40;15.90;;;;;;;-1.85;89.39;101859.65;105961;1291;57940;-62
2024/01/11 09:21:08;;;;;;;26.50;15.90;;;;;;;-1.79;89.32;101864.39;105950;1292;58748;-61
2024/01/11 09:23:54;;;;;;;30.70;16.00;;;;;;;-1.69;89.55;101861.58;105929;1294;72711;-61
2024/01/11 09:26:40;;;;;;;31.40;18.30;;;;;;;-1.63;89.43;101868.98;106013;1291;68055;-61
2024/01/11 09:29:26;;;;;;;27.40;17.60;;;;;;;-1.57;89.19;101870.95;105982;1291;72310;-61
2024/01/11 09:32:12;;;;;;;;;;;;;;;-1.49;89.34;101881.67;105936;1291;58571;-62
2024/01/11 09:34:58;;;;;;;23.80;15.10;;;;;;;-1.44;89.28;101888.23;105961;1291;58229;-61
2024/01/11 09:37:46;;;;;;;27.40;16.00;;;;;;;-1.36;89.26;101879.02;105955;1290;72373;-60
2024/01/11 09:40:32;;;;;;;27.50;15.30;;;;;;;-1.31;89.35;101876.69;105962;1290;68575;-61
2024/01/11 09:43:18;;;;;;;30.70;17.10;;;;;;;-1.27;89.17;101872.87;105946;1291;72434;-60
2024/01/11 09:46:06;;;;;;;26.40;17.60;;;;;;;-1.23;89.23;101874.96;105981;1296;58678;-61
2024/01/11 09:48:53;;;;;;;28.70;17.10;;;;;;;-1.16;89.21;101874.77;105947;1291;58958;-61
2024/01/11 09:51:51;;;;;;;33.50;17.80;;;;;;;-1.12;89.46;101866.06;94805;1290;5005415;-61
2024/01/11 09:54:42;;;;;;;25.90;15.70;;;;;;;-1.10;89.32;101856.02;105763;1291;72430;-61
2024/01/11 09:57:32;;;;;;;24.80;16.50;;;;;;;-1.05;89.39;101849.83;105980;1291;71681;-61
2024/01/11 10:00:22;;;;;;;25.30;17.20;;;;;;;-1.02;89.65;101850.32;105941;1291;58191;-60
2024/01/11 10:03:08;;;;;;;30.10;17.60;;;;;;;-0.99;89.56;101846.54;105935;1293;60006;-61
2024/01/11 10:05:57;;;;;;;27.40;17.40;;;;;;;-0.95;89.88;101831.52;106000;1291;72553;-60
2024/01/11 10:08:44;;;;;;;25.60;16.90;;;;;;;-0.93;89.77;101828.23;106010;1291;68527;-59
2024/01/11 10:11:30;;;;;;;22.80;13.90;;;;;;;-0.88;90.25;101832.73;105932;1291;72942;-61
2024/01/11 10:14:16;;;;;;;28.70;17.20;;;;;;;-0.86;90.50;101826.01;105964;1292;58204;-61
2024/01/11 10:17:02;;;;;;;24.00;14.50;;;;;;;-0.85;90.04;101825.90;105949;1291;59072;-61
2024/01/11 10:19:48;;;;;;;25.30;17.00;;;;;;;-0.81;90.42;101823.05;105936;1291;73818;-61
2024/01/11 10:22:34;;;;;;;23.20;15.00;;;;;;;-0.80;90.46;101816.38;105975;1290;69101;-61
2024/01/11 10:25:20;;;;;;;24.90;15.20;;;;;;;-0.79;90.64;101816.25;105954;1291;72488;-61
2024/01/11 10:28:07;;;;;;;22.90;15.00;;;;;;;-0.75;90.39;101823.19;105944;1290;58393;-61
2024/01/11 10:30:55;;;;;;;;;;;;;;;-0.69;90.40;101828.05;105974;1291;59582;-61
2024/01/11 10:33:43;;;;;;;23.20;15.00;;;;;;;-0.66;90.61;101823.48;106008;1290;73280;-63
2024/01/11 10:36:31;;;;;;;21.80;14.40;;;;;;;-0.64;90.57;101819.50;106040;1290;67104;-61
2024/01/11 10:39:19;;;;;;;22.90;15.40;;;;;;;-0.62;90.68;101817.24;105976;1291;72188;-60
2024/01/11 10:42:07;;;;;;;25.10;15.30;;;;;;;-0.59;90.46;101817.89;105955;1290;58654;-61
2024/01/11 10:44:58;;;;;;;21.30;15.00;;;;;;;-0.56;90.77;101818.55;105993;1290;59040;-61
2024/01/11 10:48:05;;;;;;;21.20;14.60;;;;;;;-0.54;90.44;101819.84;105972;1291;73737;-62
2024/01/11 10:51:05;;;;;;;19.60;14.00;;;;;;;-0.48;90.61;101820.26;105958;1290;67260;-62
2024/01/11 10:53:53;;;;;;;20.50;14.80;;;;;;;-0.49;90.60;101816.46;105909;1291;72262;-61
2024/01/11 10:56:40;;;;;;;26.10;17.20;;;;;;;-0.46;90.61;101818.64;105972;1291;58504;-61
2024/01/11 10:59:27;;;;;;;24.30;15.60;;;;;;;-0.46;90.58;101822.73;105992;1290;59027;-61
2024/01/11 11:02:15;;;;;;;21.00;14.30;;;;;;;-0.44;90.47;101825.37;106010;1290;73515;-61
2024/01/11 11:05:04;;;;;;;22.90;15.30;;;;;;;-0.41;90.76;101833.47;106006;1291;68372;-60
2024/01/11 11:07:51;;;;;;;25.20;15.00;;;;;;;-0.41;90.52;101835.65;105955;1290;71399;-61
2024/01/11 11:10:40;;;;;;;26.30;16.70;;;;;;;-0.39;90.50;101841.05;105957;1290;58629;-60
2024/01/11 11:13:27;;;;;;;26.30;15.90;;;;;;;-0.37;90.51;101833.86;105969;1291;59016;-60
2024/01/11 11:16:15;;;;;;;24.90;16.40;;;;;;;-0.35;90.54;101836.13;105987;1290;73692;-61
2024/01/11 11:19:01;;;;;;;26.70;16.70;;;;;;;-0.31;90.50;101830.71;105960;1291;68400;-61
2024/01/11 11:21:48;;;;;;;26.20;14.50;;;;;;;-0.30;90.60;101834.66;106040;1291;71346;-61
2024/01/11 11:24:35;;;;;;;29.00;17.40;;;;;;;-0.28;90.66;101831.53;105923;1296;58515;-62
2024/01/11 11:27:21;;;;;;;24.40;15.80;;;;;;;-0.28;90.68;101828.69;98635;1291;10002462;-61
2024/01/11 11:30:09;;;;;;;28.30;17.50;;;;;;;-0.25;90.69;101818.98;105967;1290;72102;-61
2024/01/11 11:32:56;;;;;;;28.50;16.50;;;;;;;-0.22;90.68;101817.95;105991;1290;58539;-60
2024/01/11 11:35:42;;;;;;;26.00;16.80;;;;;;;-0.24;91.06;101821.23;105962;1290;58858;-61
2024/01/11 11:38:29;;;;;;;;;;;;;;;-0.30;91.04;101821.09;105931;1291;72694;-60
2024/01/11 11:41:17;;;;;;;24.80;15.50;;;;;;;-0.31;90.82;101819.38;105968;1290;68482;-61
2024/01/11 11:44:04;;;;;;;24.40;15.80;;;;;;;-0.29;90.80;101807.91;105939;1292;71476;-61
2024/01/11 11:46:50;;;;;;;23.50;15.50;;;;;;;-0.28;90.74;101806.48;105988;1295;58634;-60
2024/01/11 11:50:09;;;;;;;27.50;17.20;;;;;;;-0.29;91.03;101799.13;105985;1291;58824;-60
2024/01/11 11:53:00;;;;;;;26.00;16.10;;;;;;;-0.26;90.85;101789.08;105931;1291;72632;-61
2024/01/11 11:55:46;;;;;;;26.20;16.10;;;;;;;-0.22;91.14;101784.20;105942;1291;67601;-60
2024/01/11 11:58:34;;;;;;;26.10;16.20;;;;;;;-0.20;91.10;101788.55;106022;1289;71467;-60
2024/01/11 12:01:20;;;;;;;25.90;16.50;;;;;;;-0.19;90.98;101785.22;105975;1291;58675;-61
2024/01/11 12:04:08;;;;;;;28.00;16.20;;;;;;;-0.16;91.05;101784.86;105969;1291;60229;-60
2024/01/11 12:06:54;;;;;;;23.30;14.90;;;;;;;-0.16;91.16;101785.85;105986;1290;72426;-61
2024/01/11 12:09:40;;;;;;;23.60;15.40;;;;;;;-0.18;91.45;101778.64;105971;1292;68747;-61
2024/01/11 12:12:26;;;;;;;25.80;15.70;;;;;;;-0.17;91.31;101776.17;105857;1291;71297;-61
2024/01/11 12:15:12;;;;;;;29.60;16.40;;;;;;;-0.17;91.18;101777.35;105911;1291;58130;-59
2024/01/11 12:17:58;;;;;;;;;;;;;;;-0.13;91.49;101773.81;105986;1290;59040;-60
2024/01/11 12:20:45;;;;;;;22.50;14.30;;;;;;;-0.15;91.52;101770.00;105996;1290;73302;-61
2024/01/11 12:23:34;;;;;;;24.90;15.10;;;;;;;-0.12;91.38;101770.13;105981;1291;68779;-60
2024/01/11 12:26:21;;;;;;;28.00;15.70;;;;;;;-0.11;91.39;101775.41;105949;1292;70455;-60
2024/01/11 12:29:09;;;;;;;24.20;16.10;;;;;;;-0.10;91.49;101772.95;106004;1292;58648;-60
2024/01/11 12:31:57;;;;;;;21.60;14.70;;;;;;;-0.08;91.50;101775.57;105941;1291;59452;-60
2024/01/11 12:34:45;;;;;;;23.50;14.40;;;;;;;-0.06;91.44;101779.23;105934;1291;74180;-61
2024/01/11 12:37:30;;;;;;;19.40;14.40;;;;;;;-0.04;91.48;101782.34;105959;1293;68255;-61
2024/01/11 12:40:16;;;;;;;22.90;14.10;;;;;;;-0.03;91.54;101777.85;105939;1293;72458;-62
2024/01/11 12:43:03;;;;;;;26.00;15.70;;;;;;;-0.03;91.52;101784.63;105843;1291;57657;-61